FD93 weather

Yellow River Airstrip
Holt, Florida, United States

Public forecast

Using degrees Fahrenheit for public forecast. Weather courtesy of forecast.io.

METAR (pilot weather report)

Closest report is Duke Field, 11.8 nm (21.8 km) E. Retrieved 2017/10/22 08:56 UTC (16 minutes ago):

KEGI 220856Z AUTO 10005KT 10SM CLR 20/16 M RMK AO2 SLPNO T01980162 FZRANO $

TAF (pilot weather forecast)

Forecast is more than 12 hours old.

Closest forecast is Duke Field, 11.8 nm (21.8 km) E. Retrieved 2017/10/21 01:06 UTC (1 day ago):

TAF KEGI 210100Z 2101/2207 04005KT 9999 SCT040 BKN250 QNH3007INS BECMG 2114/2115 10010KT 9999 SCT035 BKN250 QNH3002INS BECMG 2122/2123 11006KT 9999 SCT025 BKN250 QNH3005INS TX28/2118Z TN15/2112Z FCST BY USAF WX MET TECH